QTR66C OTHH-EGLL
Flight info
| Callsign | QTR66C |
|---|---|
| Flight time | N/A |
| Altitude | 32000 |
| Route | DATRI L564 MIGMA M550 MEVDO Y511 PMA Z712 WEJ L677 CVO L617 NOZ L551 ANTAR DCT NEVRA DCT TALAS DCT ENFAR DCT AKIKA DCT SOLGU DCT NAVSU DCT NEMEK DCT MODSA DCT BABEG DCT LIRSU DCT DENUT L608 LOGAN |
| Aircraft | B77W/H-SDE1E2E3FGHIJ2J3J4J5M1RWXY/LB1D1 |
Departure
| Time | 2026-05-06 06:42 |
|---|---|
| Airport | Hamad International Airport (OTHH) |
Arrival
| Time | N/A |
|---|---|
| Airport | London Heathrow Airport (EGLL) |
| Time | Latitude | Longitude | Altitude | Speed | Heading |
|---|---|---|---|---|---|
| 2026-05-06 06:18 | 25.27720 | 51.61177 | 27 ft | 0 kts | 248° |
| 2026-05-06 06:25 | 25.27730 | 51.61203 | 26 ft | 2 kts | 245° |
| 2026-05-06 06:26 | 25.27737 | 51.61219 | 25 ft | 2 kts | 244° |
| 2026-05-06 06:26 | 25.27745 | 51.61235 | 24 ft | 2 kts | 242° |
| 2026-05-06 06:26 | 25.27753 | 51.61251 | 25 ft | 2 kts | 240° |
| 2026-05-06 06:26 | 25.27761 | 51.61267 | 25 ft | 2 kts | 237° |
| 2026-05-06 06:27 | 25.27771 | 51.61282 | 25 ft | 2 kts | 234° |
| 2026-05-06 06:27 | 25.27781 | 51.61296 | 23 ft | 2 kts | 230° |
| 2026-05-06 06:27 | 25.27792 | 51.61310 | 25 ft | 2 kts | 224° |
| 2026-05-06 06:27 | 25.27804 | 51.61322 | 25 ft | 2 kts | 218° |
| 2026-05-06 06:28 | 25.27818 | 51.61332 | 25 ft | 2 kts | 209° |
| 2026-05-06 06:28 | 25.27832 | 51.61340 | 25 ft | 2 kts | 198° |
| 2026-05-06 06:28 | 25.27848 | 51.61344 | 25 ft | 2 kts | 185° |
| 2026-05-06 06:28 | 25.27865 | 51.61344 | 24 ft | 2 kts | 170° |
| 2026-05-06 06:29 | 25.27878 | 51.61341 | 25 ft | 1 kts | 160° |
| 2026-05-06 06:29 | 25.27882 | 51.61339 | 25 ft | 1 kts | 158° |
| 2026-05-06 06:30 | 25.27865 | 51.61347 | 24 ft | 5 kts | 159° |
| 2026-05-06 06:30 | 25.27822 | 51.61366 | 24 ft | 7 kts | 157° |
| 2026-05-06 06:31 | 25.27790 | 51.61380 | 26 ft | 7 kts | 157° |
| 2026-05-06 06:31 | 25.27743 | 51.61402 | 26 ft | 7 kts | 158° |
| 2026-05-06 06:31 | 25.27695 | 51.61423 | 26 ft | 7 kts | 158° |
| 2026-05-06 06:31 | 25.27632 | 51.61452 | 27 ft | 7 kts | 158° |
| 2026-05-06 06:32 | 25.27585 | 51.61473 | 27 ft | 7 kts | 158° |
| 2026-05-06 06:32 | 25.27559 | 51.61497 | 27 ft | 7 kts | 124° |
| 2026-05-06 06:32 | 25.27549 | 51.61555 | 27 ft | 8 kts | 103° |
| 2026-05-06 06:32 | 25.27515 | 51.61603 | 26 ft | 8 kts | 146° |
| 2026-05-06 06:33 | 25.27463 | 51.61631 | 27 ft | 8 kts | 158° |
| 2026-05-06 06:33 | 25.27409 | 51.61655 | 27 ft | 8 kts | 158° |
| 2026-05-06 06:33 | 25.27356 | 51.61679 | 27 ft | 9 kts | 158° |
| 2026-05-06 06:33 | 25.27293 | 51.61707 | 27 ft | 11 kts | 158° |
| 2026-05-06 06:34 | 25.27219 | 51.61739 | 26 ft | 12 kts | 158° |
| 2026-05-06 06:34 | 25.27136 | 51.61776 | 26 ft | 13 kts | 158° |
| 2026-05-06 06:34 | 25.27047 | 51.61815 | 26 ft | 14 kts | 158° |
| 2026-05-06 06:34 | 25.26949 | 51.61858 | 29 ft | 15 kts | 158° |
| 2026-05-06 06:35 | 25.26850 | 51.61901 | 31 ft | 15 kts | 158° |
| 2026-05-06 06:35 | 25.26751 | 51.61944 | 26 ft | 15 kts | 159° |
| 2026-05-06 06:35 | 25.26652 | 51.61987 | 28 ft | 15 kts | 159° |
| 2026-05-06 06:35 | 25.26553 | 51.62030 | 26 ft | 15 kts | 159° |
| 2026-05-06 06:36 | 25.26454 | 51.62075 | 27 ft | 15 kts | 156° |
| 2026-05-06 06:36 | 25.26356 | 51.62120 | 27 ft | 15 kts | 159° |
| 2026-05-06 06:36 | 25.26257 | 51.62163 | 27 ft | 15 kts | 159° |
| 2026-05-06 06:36 | 25.26158 | 51.62206 | 28 ft | 15 kts | 158° |
| 2026-05-06 06:37 | 25.26059 | 51.62249 | 28 ft | 15 kts | 158° |
| 2026-05-06 06:37 | 25.25960 | 51.62293 | 28 ft | 15 kts | 158° |
| 2026-05-06 06:37 | 25.25862 | 51.62337 | 27 ft | 15 kts | 158° |
| 2026-05-06 06:37 | 25.25763 | 51.62381 | 27 ft | 15 kts | 158° |
| 2026-05-06 06:38 | 25.25709 | 51.62405 | 27 ft | 0 kts | 158° |
| 2026-05-06 06:39 | 25.25673 | 51.62421 | 27 ft | 12 kts | 158° |
| 2026-05-06 06:39 | 25.25596 | 51.62456 | 26 ft | 10 kts | 158° |
| 2026-05-06 06:39 | 25.25535 | 51.62485 | 27 ft | 9 kts | 145° |
| 2026-05-06 06:39 | 25.25518 | 51.62539 | 27 ft | 3 kts | 84° |
| 2026-05-06 06:40 | 25.25522 | 51.62564 | 27 ft | 3 kts | 70° |
| 2026-05-06 06:40 | 25.25536 | 51.62585 | 27 ft | 3 kts | 55° |
| 2026-05-06 06:40 | 25.25552 | 51.62606 | 27 ft | 4 kts | 44° |
| 2026-05-06 06:40 | 25.25631 | 51.62633 | 27 ft | 18 kts | 355° |
| 2026-05-06 06:41 | 25.25752 | 51.62587 | 27 ft | 30 kts | 339° |
| 2026-05-06 06:41 | 25.26187 | 51.62403 | 28 ft | 103 kts | 337° |
| 2026-05-06 06:41 | 25.27068 | 51.62013 | 29 ft | 168 kts | 338° |
| 2026-05-06 06:41 | 25.28271 | 51.61477 | 306 ft | 196 kts | 337° |
| 2026-05-06 06:42 | 25.29581 | 51.60806 | 718 ft | 214 kts | 337° |
| 2026-05-06 06:42 | 25.30924 | 51.60209 | 1596 ft | 203 kts | 340° |
| 2026-05-06 06:42 | 25.32261 | 51.59643 | 2030 ft | 214 kts | 341° |
| 2026-05-06 06:42 | 25.33765 | 51.59252 | 2127 ft | 233 kts | 7° |
| 2026-05-06 06:43 | 25.35360 | 51.59678 | 2333 ft | 249 kts | 17° |
| 2026-05-06 06:43 | 25.37081 | 51.60224 | 2852 ft | 258 kts | 16° |
| 2026-05-06 06:43 | 25.38833 | 51.60763 | 3418 ft | 264 kts | 16° |
| 2026-05-06 06:43 | 25.40511 | 51.61562 | 3928 ft | 268 kts | 40° |
| 2026-05-06 06:44 | 25.41553 | 51.63221 | 4532 ft | 271 kts | 71° |
| 2026-05-06 06:44 | 25.41767 | 51.65318 | 5206 ft | 275 kts | 96° |
| 2026-05-06 06:44 | 25.41209 | 51.67316 | 5839 ft | 281 kts | 118° |
| 2026-05-06 06:44 | 25.39914 | 51.68941 | 6445 ft | 286 kts | 144° |
| 2026-05-06 06:45 | 25.38052 | 51.69709 | 7010 ft | 292 kts | 176° |
| 2026-05-06 06:45 | 25.36026 | 51.69558 | 7534 ft | 295 kts | 186° |
| 2026-05-06 06:45 | 25.33970 | 51.69284 | 8104 ft | 299 kts | 187° |
| 2026-05-06 06:45 | 25.31902 | 51.69012 | 8784 ft | 300 kts | 187° |
| 2026-05-06 06:46 | 25.29821 | 51.68753 | 9435 ft | 302 kts | 186° |
| 2026-05-06 06:46 | 25.27718 | 51.68508 | 10039 ft | 305 kts | 186° |
| 2026-05-06 06:46 | 25.25572 | 51.68272 | 10452 ft | 318 kts | 186° |
| 2026-05-06 06:46 | 25.23290 | 51.68032 | 10599 ft | 340 kts | 186° |
| 2026-05-06 06:47 | 25.20858 | 51.67788 | 10759 ft | 362 kts | 185° |
| 2026-05-06 06:47 | 25.18274 | 51.67536 | 10945 ft | 382 kts | 185° |
| 2026-05-06 06:47 | 25.15582 | 51.67280 | 11421 ft | 393 kts | 185° |
| 2026-05-06 06:47 | 25.12833 | 51.67024 | 12049 ft | 399 kts | 185° |
| 2026-05-06 06:48 | 25.10059 | 51.66767 | 12871 ft | 402 kts | 185° |
| 2026-05-06 06:48 | 25.07264 | 51.66510 | 13680 ft | 405 kts | 185° |
| 2026-05-06 06:48 | 25.04439 | 51.66251 | 14345 ft | 409 kts | 185° |
| 2026-05-06 06:48 | 25.01599 | 51.65991 | 15052 ft | 412 kts | 185° |
| 2026-05-06 06:49 | 24.98731 | 51.65728 | 15789 ft | 415 kts | 185° |
| 2026-05-06 06:49 | 24.95884 | 51.65468 | 16508 ft | 417 kts | 185° |
| 2026-05-06 06:49 | 24.92980 | 51.65202 | 17229 ft | 420 kts | 185° |
| 2026-05-06 06:49 | 24.90055 | 51.64934 | 17936 ft | 423 kts | 186° |
| 2026-05-06 06:50 | 24.87112 | 51.64664 | 18549 ft | 427 kts | 186° |
| 2026-05-06 06:50 | 24.84154 | 51.64342 | 19081 ft | 425 kts | 192° |
| 2026-05-06 06:50 | 24.81385 | 51.63205 | 19426 ft | 430 kts | 214° |
| 2026-05-06 06:50 | 24.79200 | 51.60981 | 19947 ft | 430 kts | 234° |
| 2026-05-06 06:51 | 24.77710 | 51.58133 | 20588 ft | 430 kts | 248° |
| 2026-05-06 06:51 | 24.76762 | 51.55017 | 21178 ft | 431 kts | 255° |
| 2026-05-06 06:51 | 24.75976 | 51.51820 | 21728 ft | 434 kts | 256° |
| 2026-05-06 06:51 | 24.75240 | 51.48595 | 22289 ft | 437 kts | 256° |
| 2026-05-06 06:52 | 24.74510 | 51.45341 | 22865 ft | 439 kts | 257° |
| 2026-05-06 06:52 | 24.73771 | 51.42079 | 23426 ft | 441 kts | 256° |
| 2026-05-06 06:52 | 24.73014 | 51.38799 | 23872 ft | 443 kts | 256° |
| 2026-05-06 06:52 | 24.72242 | 51.35511 | 24345 ft | 445 kts | 256° |
| 2026-05-06 06:53 | 24.71457 | 51.32215 | 24812 ft | 446 kts | 256° |
| 2026-05-06 06:53 | 24.70665 | 51.28918 | 25273 ft | 447 kts | 255° |
| 2026-05-06 06:53 | 24.69864 | 51.25603 | 25703 ft | 449 kts | 255° |
| 2026-05-06 06:53 | 24.69059 | 51.22278 | 26121 ft | 451 kts | 255° |
| 2026-05-06 06:54 | 24.68250 | 51.18945 | 26567 ft | 453 kts | 255° |
| 2026-05-06 06:54 | 24.67437 | 51.15596 | 26966 ft | 454 kts | 255° |
| 2026-05-06 06:54 | 24.66619 | 51.12229 | 27372 ft | 456 kts | 255° |
| 2026-05-06 06:54 | 24.65799 | 51.08858 | 27768 ft | 458 kts | 255° |
| 2026-05-06 06:55 | 24.64986 | 51.05516 | 28146 ft | 459 kts | 255° |
| 2026-05-06 06:55 | 24.64148 | 51.02077 | 28502 ft | 461 kts | 255° |
| 2026-05-06 06:55 | 24.63327 | 50.98708 | 28841 ft | 463 kts | 255° |
| 2026-05-06 06:55 | 24.62492 | 50.95287 | 29159 ft | 465 kts | 255° |
| 2026-05-06 06:56 | 24.61652 | 50.91846 | 29487 ft | 466 kts | 255° |
| 2026-05-06 06:56 | 24.60812 | 50.88412 | 29896 ft | 465 kts | 254° |
| 2026-05-06 06:56 | 24.59974 | 50.84989 | 30311 ft | 462 kts | 254° |
| 2026-05-06 06:56 | 24.59141 | 50.81588 | 30725 ft | 460 kts | 254° |
| 2026-05-06 06:57 | 24.58309 | 50.78198 | 31107 ft | 459 kts | 254° |
| 2026-05-06 06:57 | 24.57480 | 50.74821 | 31475 ft | 458 kts | 254° |
| 2026-05-06 06:57 | 24.56650 | 50.71445 | 31842 ft | 457 kts | 254° |
| 2026-05-06 06:57 | 24.55822 | 50.68080 | 32202 ft | 456 kts | 254° |
| 2026-05-06 06:58 | 24.54995 | 50.64725 | 32565 ft | 454 kts | 254° |
| 2026-05-06 06:58 | 24.54169 | 50.61375 | 32924 ft | 453 kts | 254° |
| 2026-05-06 06:58 | 24.53345 | 50.58038 | 33267 ft | 452 kts | 254° |
| 2026-05-06 06:58 | 24.52525 | 50.54720 | 33616 ft | 451 kts | 254° |
| 2026-05-06 06:59 | 24.51702 | 50.51391 | 33941 ft | 450 kts | 254° |
| 2026-05-06 06:59 | 24.50881 | 50.48076 | 34217 ft | 449 kts | 254° |
| 2026-05-06 06:59 | 24.50061 | 50.44771 | 34491 ft | 448 kts | 254° |
| 2026-05-06 06:59 | 24.49242 | 50.41466 | 34742 ft | 448 kts | 254° |
| 2026-05-06 07:00 | 24.48423 | 50.38170 | 35003 ft | 447 kts | 254° |
| 2026-05-06 07:00 | 24.47606 | 50.34882 | 35265 ft | 446 kts | 254° |
| 2026-05-06 07:00 | 24.46789 | 50.31601 | 35539 ft | 445 kts | 254° |
| 2026-05-06 07:00 | 24.45984 | 50.28369 | 35780 ft | 445 kts | 254° |
| 2026-05-06 07:01 | 24.45166 | 50.25088 | 35809 ft | 446 kts | 253° |
| 2026-05-06 07:01 | 24.43540 | 50.18577 | 35847 ft | 439 kts | 253° |
| 2026-05-06 07:02 | 24.41928 | 50.12132 | 35857 ft | 437 kts | 253° |
| 2026-05-06 07:02 | 24.40318 | 50.05713 | 35859 ft | 436 kts | 253° |
| 2026-05-06 07:03 | 24.38706 | 49.99298 | 35862 ft | 437 kts | 253° |
| 2026-05-06 07:03 | 24.37089 | 49.92874 | 35860 ft | 437 kts | 253° |
| 2026-05-06 07:04 | 24.35464 | 49.86430 | 35860 ft | 439 kts | 253° |
| 2026-05-06 07:04 | 24.33835 | 49.79980 | 35861 ft | 439 kts | 253° |
| 2026-05-06 07:05 | 24.32199 | 49.73518 | 35864 ft | 440 kts | 253° |
| 2026-05-06 07:05 | 24.30558 | 49.67049 | 35859 ft | 441 kts | 253° |
| 2026-05-06 07:06 | 24.28915 | 49.60581 | 35852 ft | 440 kts | 253° |
| 2026-05-06 07:06 | 24.27280 | 49.54161 | 35856 ft | 440 kts | 253° |
| 2026-05-06 07:07 | 24.25634 | 49.47708 | 35854 ft | 439 kts | 253° |
| 2026-05-06 07:07 | 24.23990 | 49.41273 | 35852 ft | 438 kts | 253° |
| 2026-05-06 07:08 | 24.22343 | 49.34841 | 35855 ft | 438 kts | 253° |
| 2026-05-06 07:08 | 24.20697 | 49.28427 | 35852 ft | 437 kts | 253° |
| 2026-05-06 07:09 | 24.19050 | 49.22017 | 35852 ft | 437 kts | 253° |
| 2026-05-06 07:09 | 24.17400 | 49.15610 | 35852 ft | 437 kts | 253° |
| 2026-05-06 07:10 | 24.15751 | 49.09221 | 35855 ft | 436 kts | 253° |
| 2026-05-06 07:10 | 24.14097 | 49.02821 | 35855 ft | 436 kts | 253° |
| 2026-05-06 07:11 | 24.12444 | 48.96436 | 35853 ft | 434 kts | 253° |
| 2026-05-06 07:11 | 24.10822 | 48.90164 | 35846 ft | 428 kts | 253° |
| 2026-05-06 07:12 | 24.09199 | 48.83909 | 35851 ft | 426 kts | 253° |
| 2026-05-06 07:12 | 24.07577 | 48.77679 | 37315 ft | 430 kts | 254° |
| 2026-05-06 07:12 | 24.06745 | 48.74490 | 37038 ft | 441 kts | 254° |
| 2026-05-06 07:13 | 24.05895 | 48.71230 | 36816 ft | 451 kts | 254° |
| 2026-05-06 07:13 | 24.05022 | 48.67891 | 36595 ft | 461 kts | 254° |
| 2026-05-06 07:13 | 24.04132 | 48.64485 | 36362 ft | 472 kts | 254° |
| 2026-05-06 07:13 | 24.03220 | 48.61000 | 36207 ft | 480 kts | 254° |
| 2026-05-06 07:14 | 24.02296 | 48.57475 | 36118 ft | 484 kts | 254° |
| 2026-05-06 07:14 | 24.00441 | 48.50408 | 36018 ft | 482 kts | 254° |
| 2026-05-06 07:15 | 23.98595 | 48.43390 | 36000 ft | 478 kts | 254° |
| 2026-05-06 07:15 | 23.96761 | 48.36429 | 35991 ft | 475 kts | 254° |
| 2026-05-06 07:16 | 23.94936 | 48.29516 | 35997 ft | 473 kts | 254° |
| 2026-05-06 07:16 | 23.93110 | 48.22616 | 36004 ft | 473 kts | 254° |
| 2026-05-06 07:17 | 23.91278 | 48.15703 | 36002 ft | 474 kts | 254° |
| 2026-05-06 07:17 | 23.89434 | 48.08758 | 36005 ft | 477 kts | 254° |
| 2026-05-06 07:18 | 23.87591 | 48.01834 | 36007 ft | 479 kts | 254° |
| 2026-05-06 07:18 | 23.85726 | 47.94839 | 36006 ft | 481 kts | 253° |
| 2026-05-06 07:19 | 23.83850 | 47.87819 | 36001 ft | 481 kts | 253° |
| 2026-05-06 07:19 | 23.81972 | 47.80803 | 36000 ft | 481 kts | 253° |
| 2026-05-06 07:20 | 23.80089 | 47.73785 | 35998 ft | 481 kts | 253° |
| 2026-05-06 07:20 | 23.78209 | 47.66787 | 36001 ft | 480 kts | 253° |
| 2026-05-06 07:21 | 23.76326 | 47.59796 | 36001 ft | 479 kts | 253° |
| 2026-05-06 07:21 | 23.74445 | 47.52823 | 36001 ft | 479 kts | 253° |
| 2026-05-06 07:22 | 23.72562 | 47.45861 | 35998 ft | 478 kts | 253° |
| 2026-05-06 07:22 | 23.70679 | 47.38909 | 36003 ft | 478 kts | 253° |
| 2026-05-06 07:23 | 23.68794 | 47.31962 | 36002 ft | 478 kts | 253° |
| 2026-05-06 07:23 | 23.66904 | 47.25013 | 36003 ft | 477 kts | 253° |
| 2026-05-06 07:24 | 23.65015 | 47.18079 | 36001 ft | 478 kts | 253° |
| 2026-05-06 07:24 | 23.63119 | 47.11133 | 36003 ft | 478 kts | 253° |
| 2026-05-06 07:25 | 23.61233 | 47.04235 | 36002 ft | 478 kts | 253° |
| 2026-05-06 07:25 | 23.59329 | 46.97289 | 36001 ft | 478 kts | 253° |
| 2026-05-06 07:26 | 23.57421 | 46.90340 | 36003 ft | 478 kts | 253° |
| 2026-05-06 07:26 | 23.55511 | 46.83396 | 36003 ft | 478 kts | 253° |
| 2026-05-06 07:27 | 23.53597 | 46.76448 | 36000 ft | 479 kts | 253° |
| 2026-05-06 07:27 | 23.52001 | 46.70666 | 36000 ft | 479 kts | 253° |
| 2026-05-06 07:28 | 23.50078 | 46.63715 | 36002 ft | 480 kts | 253° |
| 2026-05-06 07:28 | 23.47182 | 46.53269 | 36001 ft | 480 kts | 253° |
| 2026-05-06 07:29 | 23.44933 | 46.45173 | 36002 ft | 481 kts | 253° |
| 2026-05-06 07:29 | 23.43307 | 46.39334 | 36002 ft | 481 kts | 253° |
| 2026-05-06 07:30 | 23.41365 | 46.32371 | 36006 ft | 481 kts | 253° |
| 2026-05-06 07:30 | 23.39418 | 46.25405 | 36000 ft | 481 kts | 253° |
| 2026-05-06 07:31 | 23.37537 | 46.18434 | 35998 ft | 479 kts | 258° |
| 2026-05-06 07:31 | 23.36746 | 46.11265 | 35999 ft | 477 kts | 269° |
| 2026-05-06 07:32 | 23.36598 | 46.04057 | 36004 ft | 476 kts | 269° |
| 2026-05-06 07:32 | 23.36439 | 45.96864 | 35995 ft | 475 kts | 269° |
| 2026-05-06 07:33 | 23.36248 | 45.89733 | 35999 ft | 474 kts | 268° |
| 2026-05-06 07:33 | 23.36049 | 45.82556 | 36000 ft | 474 kts | 270° |
| 2026-05-06 07:34 | 23.36148 | 45.75381 | 36004 ft | 474 kts | 272° |
| 2026-05-06 07:34 | 23.36394 | 45.68212 | 36004 ft | 474 kts | 272° |
| 2026-05-06 07:35 | 23.36617 | 45.61035 | 36004 ft | 475 kts | 272° |
| 2026-05-06 07:35 | 23.36803 | 45.53846 | 36005 ft | 476 kts | 272° |
| 2026-05-06 07:36 | 23.36972 | 45.46649 | 36003 ft | 476 kts | 272° |
| 2026-05-06 07:36 | 23.37136 | 45.39449 | 36007 ft | 476 kts | 272° |
| 2026-05-06 07:37 | 23.37299 | 45.32239 | 36001 ft | 477 kts | 272° |
| 2026-05-06 07:37 | 23.37460 | 45.25029 | 36000 ft | 476 kts | 272° |
| 2026-05-06 07:38 | 23.37617 | 45.17865 | 35998 ft | 476 kts | 271° |
| 2026-05-06 07:38 | 23.37772 | 45.10611 | 36004 ft | 476 kts | 271° |
| 2026-05-06 07:39 | 23.37921 | 45.03460 | 36000 ft | 476 kts | 271° |
| 2026-05-06 07:39 | 23.38068 | 44.96266 | 35997 ft | 475 kts | 271° |
| 2026-05-06 07:40 | 23.38212 | 44.89085 | 36003 ft | 474 kts | 271° |
| 2026-05-06 07:40 | 23.38353 | 44.81904 | 35997 ft | 474 kts | 271° |
| 2026-05-06 07:41 | 23.38489 | 44.74729 | 36003 ft | 474 kts | 271° |
| 2026-05-06 07:41 | 23.38623 | 44.67553 | 36001 ft | 474 kts | 271° |
| 2026-05-06 07:42 | 23.38754 | 44.60384 | 36003 ft | 474 kts | 271° |
| 2026-05-06 07:42 | 23.38881 | 44.53215 | 36000 ft | 474 kts | 271° |
| 2026-05-06 07:43 | 23.39004 | 44.46096 | 36003 ft | 474 kts | 271° |
| 2026-05-06 07:43 | 23.39124 | 44.38931 | 36005 ft | 473 kts | 271° |
| 2026-05-06 07:44 | 23.39241 | 44.31763 | 36002 ft | 473 kts | 271° |
| 2026-05-06 07:44 | 23.39355 | 44.24605 | 36004 ft | 473 kts | 271° |
| 2026-05-06 07:45 | 23.39466 | 44.17439 | 36003 ft | 473 kts | 271° |
| 2026-05-06 07:45 | 23.39573 | 44.10281 | 35997 ft | 473 kts | 271° |
| 2026-05-06 07:46 | 23.39677 | 44.03131 | 36001 ft | 472 kts | 271° |
| 2026-05-06 07:46 | 23.39778 | 43.95978 | 36002 ft | 472 kts | 271° |
| 2026-05-06 07:47 | 23.39876 | 43.88836 | 35997 ft | 472 kts | 271° |
| 2026-05-06 07:47 | 23.39970 | 43.81697 | 36002 ft | 472 kts | 271° |
| 2026-05-06 07:48 | 23.40061 | 43.74558 | 36002 ft | 472 kts | 271° |
| 2026-05-06 07:48 | 23.40148 | 43.67424 | 36001 ft | 471 kts | 271° |
| 2026-05-06 07:49 | 23.40232 | 43.60293 | 35999 ft | 471 kts | 271° |
| 2026-05-06 07:49 | 23.40313 | 43.53204 | 35996 ft | 471 kts | 271° |
| 2026-05-06 07:50 | 23.40390 | 43.46072 | 36005 ft | 471 kts | 271° |
| 2026-05-06 07:50 | 23.40465 | 43.38940 | 35997 ft | 471 kts | 271° |
| 2026-05-06 07:51 | 23.40537 | 43.31804 | 35997 ft | 472 kts | 271° |
| 2026-05-06 07:51 | 23.40605 | 43.24661 | 36006 ft | 472 kts | 271° |
| 2026-05-06 07:52 | 23.40704 | 43.17524 | 36000 ft | 472 kts | 274° |
| 2026-05-06 07:52 | 23.41719 | 43.10486 | 36009 ft | 471 kts | 285° |
| 2026-05-06 07:53 | 23.43698 | 43.03699 | 36009 ft | 470 kts | 289° |
| 2026-05-06 07:53 | 23.45755 | 42.96939 | 36000 ft | 471 kts | 289° |
| 2026-05-06 07:54 | 23.47771 | 42.90155 | 35998 ft | 471 kts | 288° |
| 2026-05-06 07:54 | 23.49763 | 42.83371 | 36004 ft | 470 kts | 288° |
| 2026-05-06 07:55 | 23.51742 | 42.76624 | 36000 ft | 470 kts | 288° |
| 2026-05-06 07:55 | 23.53738 | 42.69846 | 36001 ft | 470 kts | 288° |
| 2026-05-06 07:56 | 23.55742 | 42.63067 | 35998 ft | 469 kts | 288° |
| 2026-05-06 07:56 | 23.57738 | 42.56299 | 35998 ft | 469 kts | 288° |
| 2026-05-06 07:57 | 23.59726 | 42.49537 | 36004 ft | 468 kts | 288° |
| 2026-05-06 07:57 | 23.61711 | 42.42773 | 36001 ft | 468 kts | 288° |
| 2026-05-06 07:58 | 23.63690 | 42.36018 | 36000 ft | 468 kts | 288° |
| 2026-05-06 07:58 | 23.65666 | 42.29262 | 36002 ft | 468 kts | 288° |
| 2026-05-06 07:59 | 23.67612 | 42.22545 | 36001 ft | 468 kts | 288° |
| 2026-05-06 07:59 | 23.69557 | 42.15777 | 36003 ft | 467 kts | 288° |
| 2026-05-06 08:00 | 23.71501 | 42.09008 | 36002 ft | 467 kts | 288° |
| 2026-05-06 08:00 | 23.73443 | 42.02242 | 35997 ft | 467 kts | 288° |
| 2026-05-06 08:01 | 23.75391 | 41.95471 | 36006 ft | 467 kts | 288° |
| 2026-05-06 08:01 | 23.77361 | 41.88711 | 36001 ft | 467 kts | 288° |
| 2026-05-06 08:02 | 23.79327 | 41.81946 | 36000 ft | 467 kts | 288° |
| 2026-05-06 08:02 | 23.81285 | 41.75181 | 36004 ft | 467 kts | 288° |
| 2026-05-06 08:03 | 23.83228 | 41.68419 | 36002 ft | 467 kts | 288° |
| 2026-05-06 08:03 | 23.85167 | 41.61654 | 36002 ft | 466 kts | 288° |
| 2026-05-06 08:04 | 23.87104 | 41.54891 | 36001 ft | 466 kts | 288° |
| 2026-05-06 08:04 | 23.89022 | 41.48175 | 35998 ft | 466 kts | 288° |
| 2026-05-06 08:05 | 23.90947 | 41.41415 | 36003 ft | 466 kts | 288° |
| 2026-05-06 08:05 | 23.92870 | 41.34656 | 36004 ft | 466 kts | 288° |
| 2026-05-06 08:06 | 23.94789 | 41.27894 | 36000 ft | 466 kts | 288° |
| 2026-05-06 08:06 | 23.96705 | 41.21127 | 36000 ft | 466 kts | 288° |
| 2026-05-06 08:07 | 23.98616 | 41.14365 | 36000 ft | 465 kts | 288° |
| 2026-05-06 08:07 | 24.00523 | 41.07606 | 36003 ft | 465 kts | 288° |
| 2026-05-06 08:08 | 24.02427 | 41.00844 | 36003 ft | 465 kts | 288° |
| 2026-05-06 08:08 | 24.04314 | 40.94130 | 35998 ft | 465 kts | 288° |
| 2026-05-06 08:09 | 24.06208 | 40.87373 | 35999 ft | 464 kts | 288° |
| 2026-05-06 08:09 | 24.08098 | 40.80618 | 36001 ft | 464 kts | 288° |
| 2026-05-06 08:10 | 24.09983 | 40.73862 | 36002 ft | 464 kts | 288° |
| 2026-05-06 08:10 | 24.11866 | 40.67106 | 36003 ft | 464 kts | 288° |
| 2026-05-06 08:11 | 24.13745 | 40.60349 | 36003 ft | 464 kts | 288° |
| 2026-05-06 08:11 | 24.15627 | 40.53597 | 35998 ft | 463 kts | 289° |
| 2026-05-06 08:12 | 24.18178 | 40.47141 | 36005 ft | 462 kts | 298° |
| 2026-05-06 08:12 | 24.21180 | 40.40977 | 36002 ft | 462 kts | 299° |
| 2026-05-06 08:13 | 24.24198 | 40.34769 | 36003 ft | 462 kts | 298° |
| 2026-05-06 08:13 | 24.27185 | 40.28544 | 36003 ft | 462 kts | 298° |
| 2026-05-06 08:14 | 24.30162 | 40.22300 | 36000 ft | 462 kts | 298° |
| 2026-05-06 08:14 | 24.33129 | 40.16063 | 35999 ft | 462 kts | 298° |
| 2026-05-06 08:15 | 24.36096 | 40.09821 | 36000 ft | 461 kts | 298° |
| 2026-05-06 08:15 | 24.39060 | 40.03580 | 35999 ft | 461 kts | 298° |
| 2026-05-06 08:16 | 24.42020 | 39.97338 | 35997 ft | 461 kts | 298° |
| 2026-05-06 08:16 | 24.44975 | 39.91097 | 36001 ft | 461 kts | 298° |
| 2026-05-06 08:17 | 24.47930 | 39.84850 | 35999 ft | 461 kts | 298° |
| 2026-05-06 08:17 | 24.50881 | 39.78602 | 36001 ft | 460 kts | 298° |
| 2026-05-06 08:18 | 24.54019 | 39.72495 | 35996 ft | 459 kts | 308° |
| 2026-05-06 08:18 | 24.58381 | 39.67440 | 35999 ft | 455 kts | 323° |
| 2026-05-06 08:19 | 24.63497 | 39.63355 | 36004 ft | 454 kts | 326° |
| 2026-05-06 08:19 | 24.68660 | 39.59333 | 36001 ft | 455 kts | 326° |
| 2026-05-06 08:20 | 24.73804 | 39.55267 | 35997 ft | 456 kts | 325° |
| 2026-05-06 08:20 | 24.78941 | 39.51166 | 35999 ft | 457 kts | 325° |
| 2026-05-06 08:21 | 24.84055 | 39.47069 | 36005 ft | 458 kts | 325° |
| 2026-05-06 08:21 | 24.89208 | 39.42939 | 36005 ft | 459 kts | 325° |
| 2026-05-06 08:22 | 24.94370 | 39.38799 | 36000 ft | 459 kts | 325° |
| 2026-05-06 08:22 | 24.99526 | 39.34659 | 36001 ft | 458 kts | 325° |
| 2026-05-06 08:23 | 25.04668 | 39.30526 | 35997 ft | 457 kts | 325° |
| 2026-05-06 08:23 | 25.09793 | 39.26402 | 35997 ft | 455 kts | 325° |
| 2026-05-06 08:24 | 25.14039 | 39.22983 | 35999 ft | 455 kts | 325° |
| 2026-05-06 08:24 | 25.19133 | 39.18844 | 36001 ft | 454 kts | 322° |
| 2026-05-06 08:25 | 25.23590 | 39.13895 | 36006 ft | 456 kts | 309° |
| 2026-05-06 08:25 | 25.27181 | 39.08116 | 36015 ft | 457 kts | 303° |
| 2026-05-06 08:26 | 25.30596 | 39.02176 | 36007 ft | 459 kts | 303° |
| 2026-05-06 08:26 | 25.34035 | 38.96219 | 36009 ft | 460 kts | 303° |
| 2026-05-06 08:27 | 25.37499 | 38.90269 | 36008 ft | 460 kts | 303° |
| 2026-05-06 08:27 | 25.40970 | 38.84321 | 36001 ft | 460 kts | 303° |
| 2026-05-06 08:28 | 25.44430 | 38.78387 | 35995 ft | 458 kts | 303° |
| 2026-05-06 08:28 | 25.47873 | 38.72473 | 35997 ft | 456 kts | 303° |
| 2026-05-06 08:29 | 25.51293 | 38.66590 | 35997 ft | 454 kts | 303° |
| 2026-05-06 08:29 | 25.54700 | 38.60722 | 35997 ft | 452 kts | 303° |
| 2026-05-06 08:30 | 25.58069 | 38.54912 | 35997 ft | 451 kts | 303° |
| 2026-05-06 08:30 | 25.61454 | 38.49067 | 36001 ft | 450 kts | 303° |
| 2026-05-06 08:31 | 25.64833 | 38.43225 | 36000 ft | 451 kts | 303° |
| 2026-05-06 08:31 | 25.68217 | 38.37367 | 36004 ft | 452 kts | 303° |
| 2026-05-06 08:32 | 25.71611 | 38.31484 | 36004 ft | 453 kts | 303° |
| 2026-05-06 08:32 | 25.75010 | 38.25584 | 36000 ft | 455 kts | 303° |
| 2026-05-06 08:33 | 25.78419 | 38.19661 | 36006 ft | 456 kts | 303° |
| 2026-05-06 08:33 | 25.81831 | 38.13724 | 36003 ft | 457 kts | 303° |
| 2026-05-06 08:34 | 25.86965 | 38.04776 | 35999 ft | 459 kts | 303° |
| 2026-05-06 08:35 | 25.90387 | 37.98803 | 36007 ft | 459 kts | 303° |
| 2026-05-06 08:35 | 25.93812 | 37.92815 | 35995 ft | 459 kts | 303° |
| 2026-05-06 08:36 | 25.97228 | 37.86838 | 35995 ft | 458 kts | 303° |
| 2026-05-06 08:36 | 26.00123 | 37.80553 | 35998 ft | 458 kts | 290° |
| 2026-05-06 08:37 | 26.01622 | 37.73732 | 36000 ft | 458 kts | 279° |
| 2026-05-06 08:37 | 26.02509 | 37.66724 | 36007 ft | 458 kts | 278° |
| 2026-05-06 08:38 | 26.03421 | 37.59711 | 36003 ft | 458 kts | 279° |
| 2026-05-06 08:38 | 26.04373 | 37.52707 | 36001 ft | 458 kts | 279° |
| 2026-05-06 08:39 | 26.05320 | 37.45697 | 36001 ft | 459 kts | 279° |
| 2026-05-06 08:39 | 26.06252 | 37.38685 | 36011 ft | 458 kts | 279° |
| 2026-05-06 08:40 | 26.07178 | 37.31674 | 35999 ft | 458 kts | 279° |
| 2026-05-06 08:40 | 26.08103 | 37.24677 | 35995 ft | 457 kts | 279° |
| 2026-05-06 08:41 | 26.09021 | 37.17702 | 36003 ft | 455 kts | 279° |
| 2026-05-06 08:41 | 26.09926 | 37.10796 | 36002 ft | 453 kts | 279° |
| 2026-05-06 08:42 | 26.10831 | 37.03864 | 36001 ft | 452 kts | 279° |
| 2026-05-06 08:42 | 26.11731 | 36.96950 | 35998 ft | 451 kts | 278° |
| 2026-05-06 08:43 | 26.12625 | 36.90054 | 36000 ft | 450 kts | 278° |
| 2026-05-06 08:43 | 26.13516 | 36.83154 | 35998 ft | 450 kts | 278° |
| 2026-05-06 08:44 | 26.14403 | 36.76258 | 36007 ft | 451 kts | 278° |
| 2026-05-06 08:44 | 26.15288 | 36.69348 | 36006 ft | 452 kts | 278° |
| 2026-05-06 08:45 | 26.16172 | 36.62420 | 36002 ft | 453 kts | 278° |
| 2026-05-06 08:45 | 26.17056 | 36.55472 | 36001 ft | 453 kts | 278° |
| 2026-05-06 08:46 | 26.18758 | 36.48798 | 36005 ft | 449 kts | 299° |
| 2026-05-06 08:46 | 26.22451 | 36.43316 | 36009 ft | 445 kts | 315° |
| 2026-05-06 08:47 | 26.26814 | 36.38411 | 36003 ft | 446 kts | 316° |
| 2026-05-06 08:47 | 26.31214 | 36.33454 | 36013 ft | 456 kts | 315° |
| 2026-05-06 08:48 | 26.35662 | 36.28361 | 36000 ft | 454 kts | 315° |
| 2026-05-06 08:48 | 26.39976 | 36.23379 | 35991 ft | 443 kts | 314° |
| 2026-05-06 08:49 | 26.44304 | 36.18371 | 35998 ft | 455 kts | 314° |
| 2026-05-06 08:49 | 26.47362 | 36.14832 | 36032 ft | 461 kts | 314° |
| 2026-05-06 08:50 | 26.51809 | 36.09682 | 36005 ft | 458 kts | 314° |
| 2026-05-06 08:50 | 26.56208 | 36.04580 | 35996 ft | 453 kts | 314° |
| 2026-05-06 08:51 | 26.60557 | 35.99531 | 35992 ft | 450 kts | 314° |
| 2026-05-06 08:51 | 26.64888 | 35.94498 | 36000 ft | 449 kts | 314° |
| 2026-05-06 08:52 | 26.69188 | 35.89494 | 36008 ft | 451 kts | 314° |
| 2026-05-06 08:52 | 26.73546 | 35.84416 | 36012 ft | 454 kts | 314° |
| 2026-05-06 08:53 | 26.77934 | 35.79298 | 36009 ft | 457 kts | 314° |
| 2026-05-06 08:53 | 26.82352 | 35.74140 | 36011 ft | 460 kts | 314° |
| 2026-05-06 08:54 | 26.86787 | 35.68956 | 36003 ft | 461 kts | 314° |
| 2026-05-06 08:54 | 26.91225 | 35.63762 | 35996 ft | 460 kts | 314° |
| 2026-05-06 08:55 | 26.95638 | 35.58590 | 35995 ft | 458 kts | 314° |
| 2026-05-06 08:55 | 27.00031 | 35.53435 | 35985 ft | 456 kts | 314° |
| 2026-05-06 08:56 | 27.04391 | 35.48312 | 35993 ft | 453 kts | 314° |
| 2026-05-06 08:56 | 27.08734 | 35.43204 | 35997 ft | 451 kts | 314° |
| 2026-05-06 08:57 | 27.13061 | 35.38108 | 36000 ft | 450 kts | 314° |
| 2026-05-06 08:57 | 27.17354 | 35.33046 | 36003 ft | 451 kts | 314° |
| 2026-05-06 08:58 | 27.21683 | 35.27935 | 36005 ft | 452 kts | 314° |
| 2026-05-06 08:58 | 27.26026 | 35.22802 | 36006 ft | 454 kts | 314° |
| 2026-05-06 08:59 | 27.30381 | 35.17649 | 36008 ft | 456 kts | 314° |
| 2026-05-06 08:59 | 27.34752 | 35.12469 | 36003 ft | 457 kts | 313° |
| 2026-05-06 09:00 | 27.39131 | 35.07274 | 36004 ft | 458 kts | 313° |
| 2026-05-06 09:00 | 27.43509 | 35.02073 | 36000 ft | 458 kts | 313° |
| 2026-05-06 09:01 | 27.47884 | 34.96870 | 35999 ft | 457 kts | 313° |
| 2026-05-06 09:01 | 27.52282 | 34.91713 | 35994 ft | 455 kts | 316° |
| 2026-05-06 09:02 | 27.56884 | 34.86822 | 35996 ft | 454 kts | 317° |
| 2026-05-06 09:02 | 27.61513 | 34.81988 | 36000 ft | 453 kts | 317° |
| 2026-05-06 09:03 | 27.66111 | 34.77149 | 36000 ft | 452 kts | 317° |
| 2026-05-06 09:03 | 27.70662 | 34.72329 | 35999 ft | 452 kts | 317° |
| 2026-05-06 09:04 | 27.75238 | 34.67471 | 36003 ft | 451 kts | 317° |
| 2026-05-06 09:04 | 27.79813 | 34.62609 | 36003 ft | 452 kts | 317° |
| 2026-05-06 09:05 | 27.84393 | 34.57737 | 36004 ft | 452 kts | 317° |
| 2026-05-06 09:05 | 27.88976 | 34.52855 | 36001 ft | 453 kts | 317° |
| 2026-05-06 09:06 | 27.93566 | 34.47960 | 36001 ft | 454 kts | 317° |
| 2026-05-06 09:06 | 27.98161 | 34.43054 | 36003 ft | 454 kts | 317° |
| 2026-05-06 09:07 | 28.02445 | 34.37808 | 36008 ft | 454 kts | 309° |
| 2026-05-06 09:07 | 28.06429 | 34.32241 | 36005 ft | 455 kts | 309° |
| 2026-05-06 09:08 | 28.10412 | 34.26656 | 36000 ft | 456 kts | 309° |
| 2026-05-06 09:08 | 28.14423 | 34.21073 | 36002 ft | 457 kts | 309° |
| 2026-05-06 09:09 | 28.18447 | 34.15488 | 36000 ft | 458 kts | 309° |
| 2026-05-06 09:09 | 28.22476 | 34.09892 | 35985 ft | 459 kts | 309° |
| 2026-05-06 09:10 | 28.26485 | 34.04315 | 35995 ft | 460 kts | 309° |
| 2026-05-06 09:10 | 28.30532 | 33.98676 | 36008 ft | 461 kts | 309° |
| 2026-05-06 09:11 | 28.34591 | 33.93014 | 35997 ft | 464 kts | 309° |
| 2026-05-06 09:11 | 28.38667 | 33.87320 | 36012 ft | 465 kts | 309° |
| 2026-05-06 09:12 | 28.42751 | 33.81606 | 35992 ft | 466 kts | 309° |
| 2026-05-06 09:12 | 28.46822 | 33.75904 | 36009 ft | 462 kts | 309° |
| 2026-05-06 09:13 | 28.50828 | 33.70284 | 35996 ft | 454 kts | 309° |
| 2026-05-06 09:13 | 28.54797 | 33.64710 | 36010 ft | 453 kts | 309° |
| 2026-05-06 09:14 | 28.58765 | 33.59126 | 36004 ft | 454 kts | 309° |
| 2026-05-06 09:14 | 28.62740 | 33.53529 | 36010 ft | 455 kts | 309° |
| 2026-05-06 09:15 | 28.66724 | 33.47917 | 36008 ft | 456 kts | 309° |
| 2026-05-06 09:15 | 28.70684 | 33.42335 | 35999 ft | 456 kts | 309° |
| 2026-05-06 09:16 | 28.74672 | 33.36703 | 36001 ft | 456 kts | 309° |
| 2026-05-06 09:16 | 28.78649 | 33.31079 | 35996 ft | 455 kts | 309° |
| 2026-05-06 09:17 | 28.82616 | 33.25461 | 35998 ft | 454 kts | 309° |
| 2026-05-06 09:17 | 28.86569 | 33.19854 | 36000 ft | 452 kts | 309° |
| 2026-05-06 09:18 | 28.90502 | 33.14269 | 35999 ft | 451 kts | 309° |
| 2026-05-06 09:18 | 28.94420 | 33.08697 | 35997 ft | 449 kts | 309° |
| 2026-05-06 09:19 | 28.98325 | 33.03138 | 35999 ft | 448 kts | 308° |
| 2026-05-06 09:19 | 29.02220 | 32.97583 | 36002 ft | 448 kts | 308° |
| 2026-05-06 09:20 | 29.06116 | 32.92021 | 36003 ft | 448 kts | 308° |
| 2026-05-06 09:20 | 29.09354 | 32.87394 | 36001 ft | 449 kts | 308° |
| 2026-05-06 09:21 | 29.13258 | 32.81804 | 35999 ft | 450 kts | 308° |
| 2026-05-06 09:21 | 29.17166 | 32.76204 | 36004 ft | 451 kts | 308° |
| 2026-05-06 09:22 | 29.21081 | 32.70584 | 36005 ft | 452 kts | 308° |
| 2026-05-06 09:22 | 29.25002 | 32.64950 | 36001 ft | 453 kts | 308° |
| 2026-05-06 09:23 | 29.28898 | 32.59341 | 36004 ft | 453 kts | 308° |
| 2026-05-06 09:23 | 29.32799 | 32.53672 | 35999 ft | 453 kts | 308° |
| 2026-05-06 09:24 | 29.36690 | 32.47990 | 35997 ft | 453 kts | 308° |
| 2026-05-06 09:24 | 29.40579 | 32.42305 | 36005 ft | 453 kts | 308° |
| 2026-05-06 09:25 | 29.44466 | 32.36619 | 35997 ft | 453 kts | 308° |
| 2026-05-06 09:25 | 29.48356 | 32.30923 | 36001 ft | 453 kts | 308° |
| 2026-05-06 09:26 | 29.52244 | 32.25221 | 36002 ft | 454 kts | 308° |
| 2026-05-06 09:26 | 29.56139 | 32.19502 | 36013 ft | 454 kts | 308° |
| 2026-05-06 09:27 | 29.60028 | 32.13783 | 36005 ft | 454 kts | 308° |
| 2026-05-06 09:27 | 29.63912 | 32.08063 | 35998 ft | 453 kts | 308° |
| 2026-05-06 09:28 | 29.67778 | 32.02362 | 35999 ft | 452 kts | 308° |
| 2026-05-06 09:28 | 29.71632 | 31.96669 | 35997 ft | 450 kts | 308° |
| 2026-05-06 09:29 | 29.75476 | 31.90985 | 36000 ft | 449 kts | 308° |
| 2026-05-06 09:29 | 29.79276 | 31.85340 | 36001 ft | 449 kts | 307° |
| 2026-05-06 09:30 | 29.83012 | 31.79580 | 36001 ft | 449 kts | 306° |
| 2026-05-06 09:30 | 29.86725 | 31.73791 | 36001 ft | 450 kts | 306° |
| 2026-05-06 09:31 | 29.90456 | 31.67990 | 36007 ft | 451 kts | 306° |
| 2026-05-06 09:31 | 29.94203 | 31.62171 | 36005 ft | 453 kts | 306° |
| 2026-05-06 09:32 | 29.97957 | 31.56335 | 36004 ft | 454 kts | 306° |
| 2026-05-06 09:32 | 30.01718 | 31.50479 | 36008 ft | 454 kts | 306° |
| 2026-05-06 09:33 | 30.05472 | 31.44625 | 35996 ft | 454 kts | 306° |
| 2026-05-06 09:33 | 30.09294 | 31.38839 | 36002 ft | 452 kts | 311° |
| 2026-05-06 09:34 | 30.13763 | 31.33769 | 36010 ft | 450 kts | 317° |
| 2026-05-06 09:34 | 30.18350 | 31.28931 | 36000 ft | 449 kts | 318° |
| 2026-05-06 09:35 | 30.22946 | 31.24055 | 35992 ft | 447 kts | 317° |
| 2026-05-06 09:35 | 30.27502 | 31.19173 | 36001 ft | 446 kts | 317° |
| 2026-05-06 09:36 | 30.32047 | 31.14279 | 36001 ft | 446 kts | 317° |
| 2026-05-06 09:36 | 30.36585 | 31.09385 | 36008 ft | 446 kts | 317° |
| 2026-05-06 09:37 | 30.41128 | 31.04480 | 36005 ft | 447 kts | 317° |
| 2026-05-06 09:37 | 30.45680 | 30.99560 | 36004 ft | 448 kts | 317° |
| 2026-05-06 09:38 | 30.50237 | 30.94630 | 36001 ft | 449 kts | 317° |
| 2026-05-06 09:38 | 30.54805 | 30.89680 | 36008 ft | 449 kts | 317° |
| 2026-05-06 09:39 | 30.59370 | 30.84723 | 35998 ft | 450 kts | 317° |
| 2026-05-06 09:39 | 30.63935 | 30.79763 | 36005 ft | 449 kts | 317° |
| 2026-05-06 09:40 | 30.68497 | 30.74800 | 36000 ft | 449 kts | 317° |
| 2026-05-06 09:40 | 30.75294 | 30.67390 | 36001 ft | 448 kts | 317° |
| 2026-05-06 09:41 | 30.79837 | 30.62430 | 36002 ft | 448 kts | 317° |
| 2026-05-06 09:41 | 30.84375 | 30.57468 | 36001 ft | 447 kts | 317° |
| 2026-05-06 09:42 | 30.88908 | 30.52505 | 35998 ft | 447 kts | 317° |
| 2026-05-06 09:42 | 30.93431 | 30.47546 | 36003 ft | 446 kts | 317° |
| 2026-05-06 09:43 | 30.97947 | 30.42587 | 36000 ft | 446 kts | 317° |
| 2026-05-06 09:43 | 31.02463 | 30.37622 | 36003 ft | 446 kts | 317° |
| 2026-05-06 09:44 | 31.06923 | 30.32589 | 35998 ft | 446 kts | 310° |
| 2026-05-06 09:44 | 31.10228 | 30.26500 | 35999 ft | 445 kts | 292° |
| 2026-05-06 09:45 | 31.12179 | 30.19715 | 36003 ft | 444 kts | 286° |
| 2026-05-06 09:45 | 31.13984 | 30.12807 | 36009 ft | 446 kts | 287° |
| 2026-05-06 09:46 | 31.15856 | 30.05897 | 36003 ft | 447 kts | 287° |
| 2026-05-06 09:46 | 31.17795 | 29.99012 | 35998 ft | 446 kts | 294° |
| 2026-05-06 09:47 | 31.19382 | 29.95915 | 36003 ft | 445 kts | 310° |
| 2026-05-06 09:47 | 31.21576 | 29.93378 | 36005 ft | 444 kts | 324° |
| 2026-05-06 09:47 | 31.26922 | 29.89833 | 36008 ft | 442 kts | 333° |
| 2026-05-06 09:48 | 31.32404 | 29.86534 | 36006 ft | 445 kts | 333° |
| 2026-05-06 09:48 | 31.37900 | 29.83162 | 36006 ft | 447 kts | 333° |
| 2026-05-06 09:49 | 31.43361 | 29.79755 | 36005 ft | 449 kts | 332° |
| 2026-05-06 09:49 | 31.48868 | 29.76298 | 36003 ft | 449 kts | 332° |
| 2026-05-06 09:50 | 31.54376 | 29.72835 | 36001 ft | 449 kts | 332° |
| 2026-05-06 09:50 | 31.59873 | 29.69376 | 35998 ft | 448 kts | 332° |
| 2026-05-06 09:51 | 31.65351 | 29.65926 | 35998 ft | 446 kts | 332° |
| 2026-05-06 09:51 | 31.70806 | 29.62486 | 35996 ft | 444 kts | 332° |
| 2026-05-06 09:52 | 31.76240 | 29.59054 | 35998 ft | 443 kts | 332° |
| 2026-05-06 09:52 | 31.81645 | 29.55636 | 36001 ft | 442 kts | 332° |
| 2026-05-06 09:53 | 31.87057 | 29.52209 | 36003 ft | 442 kts | 332° |
| 2026-05-06 09:53 | 31.92472 | 29.48774 | 36002 ft | 442 kts | 332° |
| 2026-05-06 09:54 | 31.97894 | 29.45331 | 36003 ft | 443 kts | 332° |
| 2026-05-06 09:54 | 32.03326 | 29.41877 | 36004 ft | 444 kts | 332° |
| 2026-05-06 09:55 | 32.08775 | 29.38403 | 36004 ft | 445 kts | 332° |
| 2026-05-06 09:55 | 32.14230 | 29.34920 | 36002 ft | 446 kts | 332° |
| 2026-05-06 09:56 | 32.19694 | 29.31427 | 35999 ft | 447 kts | 332° |
| 2026-05-06 09:56 | 32.25118 | 29.27954 | 36000 ft | 447 kts | 332° |
| 2026-05-06 09:57 | 32.30580 | 29.24451 | 35999 ft | 446 kts | 332° |
| 2026-05-06 09:57 | 32.36031 | 29.20951 | 36001 ft | 445 kts | 332° |
| 2026-05-06 09:58 | 32.41470 | 29.17454 | 35999 ft | 445 kts | 332° |
| 2026-05-06 09:58 | 32.46897 | 29.13960 | 35998 ft | 444 kts | 332° |
| 2026-05-06 09:59 | 32.52317 | 29.10466 | 35997 ft | 443 kts | 332° |
| 2026-05-06 09:59 | 32.57725 | 29.06974 | 36001 ft | 442 kts | 332° |
| 2026-05-06 10:00 | 32.63129 | 29.03481 | 36000 ft | 442 kts | 332° |
| 2026-05-06 10:00 | 32.68495 | 29.00007 | 36003 ft | 442 kts | 332° |
| 2026-05-06 10:01 | 32.73897 | 28.96505 | 36002 ft | 443 kts | 332° |
| 2026-05-06 10:01 | 32.79304 | 28.92994 | 36002 ft | 443 kts | 332° |
| 2026-05-06 10:02 | 32.84715 | 28.89477 | 35998 ft | 443 kts | 332° |
| 2026-05-06 10:02 | 32.90133 | 28.85949 | 36001 ft | 444 kts | 332° |
| 2026-05-06 10:03 | 32.95551 | 28.82417 | 36003 ft | 444 kts | 332° |
| 2026-05-06 10:03 | 33.00975 | 28.78876 | 36002 ft | 445 kts | 332° |
| 2026-05-06 10:04 | 33.06397 | 28.75331 | 36001 ft | 445 kts | 332° |
| 2026-05-06 10:04 | 33.11821 | 28.71780 | 36001 ft | 444 kts | 332° |
| 2026-05-06 10:05 | 33.17238 | 28.68228 | 36001 ft | 444 kts | 332° |
| 2026-05-06 10:05 | 33.22616 | 28.64697 | 36003 ft | 444 kts | 332° |
| 2026-05-06 10:06 | 33.28021 | 28.61143 | 36002 ft | 443 kts | 332° |
| 2026-05-06 10:06 | 33.33421 | 28.57588 | 35999 ft | 443 kts | 332° |
| 2026-05-06 10:07 | 33.38815 | 28.54030 | 36001 ft | 443 kts | 332° |
| 2026-05-06 10:07 | 33.44205 | 28.50471 | 35998 ft | 442 kts | 332° |
| 2026-05-06 10:08 | 33.49591 | 28.46909 | 35999 ft | 442 kts | 332° |
| 2026-05-06 10:08 | 33.54975 | 28.43344 | 35999 ft | 442 kts | 332° |
| 2026-05-06 10:09 | 33.60356 | 28.39775 | 36002 ft | 442 kts | 332° |
| 2026-05-06 10:09 | 33.65738 | 28.36200 | 36002 ft | 442 kts | 332° |
| 2026-05-06 10:10 | 33.71028 | 28.32435 | 36003 ft | 442 kts | 326° |
| 2026-05-06 10:10 | 33.76024 | 28.28205 | 36005 ft | 443 kts | 324° |
| 2026-05-06 10:11 | 33.81026 | 28.23886 | 36003 ft | 443 kts | 325° |
| 2026-05-06 10:11 | 33.86049 | 28.19587 | 36002 ft | 443 kts | 325° |
| 2026-05-06 10:12 | 33.91090 | 28.15301 | 36003 ft | 444 kts | 325° |
| 2026-05-06 10:12 | 33.96130 | 28.11020 | 36002 ft | 444 kts | 325° |
| 2026-05-06 10:13 | 34.01177 | 28.06730 | 36001 ft | 444 kts | 325° |
| 2026-05-06 10:13 | 34.06215 | 28.02439 | 36003 ft | 443 kts | 325° |
| 2026-05-06 10:14 | 34.11251 | 27.98143 | 36000 ft | 443 kts | 325° |
| 2026-05-06 10:14 | 34.16284 | 27.93843 | 35999 ft | 443 kts | 325° |
| 2026-05-06 10:15 | 34.21309 | 27.89543 | 36002 ft | 443 kts | 325° |
| 2026-05-06 10:15 | 34.26329 | 27.85241 | 35999 ft | 442 kts | 325° |
| 2026-05-06 10:16 | 34.31345 | 27.80936 | 36002 ft | 442 kts | 325° |
| 2026-05-06 10:16 | 34.36357 | 27.76628 | 36002 ft | 442 kts | 325° |
| 2026-05-06 10:17 | 34.41366 | 27.72316 | 36001 ft | 442 kts | 325° |
| 2026-05-06 10:17 | 34.45527 | 27.68730 | 36002 ft | 442 kts | 325° |
| 2026-05-06 10:18 | 34.50532 | 27.64410 | 36003 ft | 442 kts | 325° |
| 2026-05-06 10:18 | 34.55535 | 27.60085 | 36002 ft | 442 kts | 325° |
| 2026-05-06 10:19 | 34.60541 | 27.55751 | 36002 ft | 442 kts | 325° |
| 2026-05-06 10:19 | 34.65547 | 27.51410 | 36000 ft | 442 kts | 325° |
| 2026-05-06 10:20 | 34.70550 | 27.47066 | 36003 ft | 442 kts | 325° |
| 2026-05-06 10:20 | 34.75555 | 27.42713 | 36001 ft | 442 kts | 325° |
| 2026-05-06 10:21 | 34.80558 | 27.38355 | 36003 ft | 442 kts | 324° |
| 2026-05-06 10:21 | 34.85563 | 27.33989 | 36002 ft | 442 kts | 324° |
| 2026-05-06 10:22 | 34.90563 | 27.29620 | 36003 ft | 442 kts | 324° |
| 2026-05-06 10:22 | 34.95560 | 27.25248 | 36001 ft | 442 kts | 324° |
| 2026-05-06 10:23 | 35.00521 | 27.20900 | 36003 ft | 442 kts | 324° |
| 2026-05-06 10:23 | 35.05544 | 27.16491 | 36001 ft | 442 kts | 324° |
| 2026-05-06 10:24 | 35.10531 | 27.12107 | 36002 ft | 442 kts | 324° |
| 2026-05-06 10:24 | 35.15480 | 27.07750 | 35998 ft | 441 kts | 324° |
| 2026-05-06 10:25 | 35.20457 | 27.03361 | 36002 ft | 441 kts | 324° |
| 2026-05-06 10:25 | 35.25431 | 26.98968 | 36003 ft | 441 kts | 324° |
| 2026-05-06 10:26 | 35.30405 | 26.94568 | 36002 ft | 441 kts | 324° |
| 2026-05-06 10:26 | 35.35378 | 26.90163 | 36001 ft | 441 kts | 324° |
| 2026-05-06 10:27 | 35.40353 | 26.85748 | 36003 ft | 442 kts | 324° |
| 2026-05-06 10:27 | 35.45329 | 26.81326 | 36002 ft | 442 kts | 324° |
| 2026-05-06 10:28 | 35.50301 | 26.76902 | 36001 ft | 442 kts | 324° |
| 2026-05-06 10:28 | 35.55279 | 26.72464 | 36002 ft | 442 kts | 324° |
| 2026-05-06 10:29 | 35.60255 | 26.68022 | 35998 ft | 442 kts | 324° |
| 2026-05-06 10:29 | 35.65224 | 26.63578 | 35998 ft | 441 kts | 324° |
| 2026-05-06 10:30 | 35.70182 | 26.59137 | 36001 ft | 441 kts | 324° |
| 2026-05-06 10:30 | 35.75112 | 26.54715 | 35999 ft | 441 kts | 324° |
| 2026-05-06 10:31 | 35.80066 | 26.50264 | 36001 ft | 441 kts | 324° |
| 2026-05-06 10:31 | 35.85014 | 26.45811 | 36003 ft | 440 kts | 324° |
| 2026-05-06 10:32 | 35.89963 | 26.41351 | 36002 ft | 440 kts | 324° |
| 2026-05-06 10:32 | 35.94905 | 26.36889 | 36002 ft | 440 kts | 324° |
| 2026-05-06 10:33 | 35.99849 | 26.32419 | 36003 ft | 440 kts | 324° |
| 2026-05-06 10:33 | 36.04788 | 26.27946 | 36002 ft | 440 kts | 324° |
| 2026-05-06 10:34 | 36.09728 | 26.23466 | 36002 ft | 440 kts | 324° |
| 2026-05-06 10:34 | 36.14633 | 26.19010 | 36003 ft | 440 kts | 324° |
| 2026-05-06 10:35 | 36.19572 | 26.14516 | 36003 ft | 441 kts | 324° |
| 2026-05-06 10:35 | 36.24509 | 26.10016 | 36001 ft | 441 kts | 324° |
| 2026-05-06 10:36 | 36.29446 | 26.05509 | 36001 ft | 441 kts | 324° |
| 2026-05-06 10:36 | 36.34379 | 26.00999 | 36002 ft | 441 kts | 324° |
| 2026-05-06 10:37 | 36.39313 | 25.96480 | 36003 ft | 441 kts | 324° |
| 2026-05-06 10:37 | 36.44247 | 25.91955 | 36002 ft | 441 kts | 324° |
| 2026-05-06 10:38 | 36.49173 | 25.87428 | 36000 ft | 440 kts | 324° |
| 2026-05-06 10:38 | 36.54098 | 25.82896 | 35999 ft | 440 kts | 324° |
| 2026-05-06 10:39 | 36.59020 | 25.78360 | 36003 ft | 440 kts | 324° |
| 2026-05-06 10:39 | 36.63935 | 25.73822 | 36003 ft | 440 kts | 324° |
| 2026-05-06 10:40 | 36.68812 | 25.69311 | 36001 ft | 440 kts | 324° |
| 2026-05-06 10:40 | 36.73726 | 25.64760 | 36002 ft | 440 kts | 323° |
| 2026-05-06 10:41 | 36.78633 | 25.60208 | 36000 ft | 440 kts | 323° |
| 2026-05-06 10:41 | 36.83536 | 25.55652 | 36001 ft | 440 kts | 323° |
| 2026-05-06 10:42 | 36.88442 | 25.51085 | 36014 ft | 440 kts | 323° |
| 2026-05-06 10:42 | 36.93353 | 25.46506 | 36001 ft | 440 kts | 323° |
| 2026-05-06 10:43 | 36.98265 | 25.41919 | 36006 ft | 441 kts | 323° |
| 2026-05-06 10:44 | 37.05604 | 25.35052 | 36001 ft | 441 kts | 323° |
| 2026-05-06 10:44 | 37.10511 | 25.30449 | 36000 ft | 441 kts | 323° |
| 2026-05-06 10:45 | 37.15412 | 25.25847 | 36004 ft | 440 kts | 323° |
| 2026-05-06 10:45 | 37.20303 | 25.21245 | 35997 ft | 440 kts | 323° |
| 2026-05-06 10:46 | 37.25190 | 25.16639 | 36000 ft | 439 kts | 323° |
| 2026-05-06 10:46 | 37.30071 | 25.12032 | 36002 ft | 438 kts | 323° |
| 2026-05-06 10:47 | 37.34941 | 25.07427 | 36001 ft | 438 kts | 323° |
| 2026-05-06 10:47 | 37.39805 | 25.02820 | 36003 ft | 438 kts | 323° |
| 2026-05-06 10:48 | 37.44670 | 24.98204 | 36002 ft | 438 kts | 323° |
| 2026-05-06 10:48 | 37.49540 | 24.93577 | 36004 ft | 439 kts | 323° |
| 2026-05-06 10:49 | 37.54414 | 24.88939 | 36001 ft | 439 kts | 323° |
| 2026-05-06 10:49 | 37.59257 | 24.84320 | 36003 ft | 440 kts | 323° |
| 2026-05-06 10:50 | 37.64131 | 24.79664 | 36001 ft | 440 kts | 323° |
| 2026-05-06 10:50 | 37.69006 | 24.75001 | 35999 ft | 440 kts | 323° |
| 2026-05-06 10:51 | 37.73881 | 24.70329 | 35999 ft | 440 kts | 323° |
| 2026-05-06 10:51 | 37.78752 | 24.65653 | 36001 ft | 439 kts | 323° |
| 2026-05-06 10:52 | 37.83617 | 24.60975 | 36002 ft | 439 kts | 323° |
| 2026-05-06 10:52 | 37.88478 | 24.56293 | 36001 ft | 439 kts | 323° |
| 2026-05-06 10:53 | 37.93299 | 24.51642 | 35999 ft | 439 kts | 323° |
| 2026-05-06 10:53 | 37.98182 | 24.46923 | 36008 ft | 439 kts | 323° |
| 2026-05-06 10:54 | 38.03035 | 24.42224 | 36006 ft | 439 kts | 323° |
| 2026-05-06 10:54 | 38.07861 | 24.37544 | 35992 ft | 440 kts | 323° |
| 2026-05-06 10:55 | 38.12723 | 24.32820 | 36006 ft | 440 kts | 323° |
| 2026-05-06 10:55 | 38.17596 | 24.28080 | 36004 ft | 441 kts | 323° |
| 2026-05-06 10:56 | 38.22471 | 24.23326 | 36007 ft | 442 kts | 323° |
| 2026-05-06 10:56 | 38.27343 | 24.18568 | 36004 ft | 442 kts | 323° |
| 2026-05-06 10:57 | 38.32216 | 24.13802 | 35997 ft | 441 kts | 323° |
| 2026-05-06 10:57 | 38.37082 | 24.09034 | 36002 ft | 441 kts | 323° |
| 2026-05-06 10:58 | 38.41928 | 24.04276 | 36000 ft | 439 kts | 323° |
| 2026-05-06 10:58 | 38.46764 | 23.99521 | 35999 ft | 438 kts | 322° |
| 2026-05-06 10:59 | 38.51588 | 23.94770 | 35995 ft | 438 kts | 322° |
| 2026-05-06 10:59 | 38.56380 | 23.90041 | 35998 ft | 439 kts | 322° |
| 2026-05-06 11:00 | 38.61216 | 23.85262 | 36008 ft | 441 kts | 322° |
| 2026-05-06 11:00 | 38.66087 | 23.80439 | 36013 ft | 444 kts | 322° |
| 2026-05-06 11:01 | 38.70981 | 23.75582 | 36012 ft | 446 kts | 322° |
| 2026-05-06 11:01 | 38.75838 | 23.70758 | 35980 ft | 438 kts | 322° |
| 2026-05-06 11:02 | 38.80618 | 23.65998 | 35993 ft | 433 kts | 322° |
| 2026-05-06 11:02 | 38.85358 | 23.61272 | 35999 ft | 430 kts | 322° |
| 2026-05-06 11:03 | 38.90083 | 23.56552 | 36002 ft | 431 kts | 322° |
| 2026-05-06 11:03 | 38.94827 | 23.51805 | 36011 ft | 434 kts | 322° |
| 2026-05-06 11:04 | 38.99574 | 23.47047 | 36012 ft | 437 kts | 322° |
| 2026-05-06 11:04 | 39.04381 | 23.42220 | 36011 ft | 440 kts | 322° |
| 2026-05-06 11:05 | 39.09222 | 23.37350 | 36008 ft | 443 kts | 322° |
| 2026-05-06 11:05 | 39.14077 | 23.32457 | 36005 ft | 443 kts | 322° |
| 2026-05-06 11:06 | 39.18926 | 23.27562 | 35985 ft | 443 kts | 322° |
| 2026-05-06 11:06 | 39.23766 | 23.22667 | 36003 ft | 441 kts | 322° |
| 2026-05-06 11:07 | 39.28582 | 23.17786 | 35997 ft | 439 kts | 322° |
| 2026-05-06 11:07 | 39.33379 | 23.12918 | 35998 ft | 438 kts | 322° |
| 2026-05-06 11:08 | 39.38167 | 23.08048 | 35998 ft | 438 kts | 322° |
| 2026-05-06 11:08 | 39.42967 | 23.03160 | 36005 ft | 440 kts | 322° |
| 2026-05-06 11:09 | 39.47764 | 22.98263 | 36014 ft | 444 kts | 322° |
| 2026-05-06 11:09 | 39.52655 | 22.93263 | 36012 ft | 446 kts | 322° |
| 2026-05-06 11:10 | 39.57496 | 22.88305 | 36009 ft | 447 kts | 322° |
| 2026-05-06 11:10 | 39.62372 | 22.83301 | 35985 ft | 446 kts | 322° |
| 2026-05-06 11:11 | 39.67219 | 22.78316 | 36002 ft | 443 kts | 322° |
| 2026-05-06 11:11 | 39.72024 | 22.73368 | 35984 ft | 439 kts | 322° |
| 2026-05-06 11:12 | 39.76791 | 22.68451 | 35998 ft | 438 kts | 322° |
| 2026-05-06 11:12 | 39.81613 | 22.63466 | 36013 ft | 446 kts | 322° |
| 2026-05-06 11:13 | 39.86456 | 22.58450 | 36008 ft | 444 kts | 322° |
| 2026-05-06 11:13 | 39.91263 | 22.53461 | 35996 ft | 441 kts | 322° |
| 2026-05-06 11:14 | 39.96047 | 22.48490 | 35985 ft | 439 kts | 322° |
| 2026-05-06 11:14 | 40.00008 | 22.44366 | 36003 ft | 438 kts | 322° |
| 2026-05-06 11:15 | 40.04802 | 22.39368 | 36003 ft | 447 kts | 322° |
| 2026-05-06 11:15 | 40.09725 | 22.34221 | 36008 ft | 456 kts | 321° |
| 2026-05-06 11:16 | 40.15390 | 22.28287 | 35996 ft | 442 kts | 321° |
| 2026-05-06 11:16 | 40.20138 | 22.23306 | 36001 ft | 435 kts | 321° |
| 2026-05-06 11:17 | 40.24914 | 22.18288 | 36014 ft | 448 kts | 321° |
| 2026-05-06 11:17 | 40.28980 | 22.14005 | 36012 ft | 451 kts | 321° |
| 2026-05-06 11:18 | 40.33804 | 22.08915 | 35981 ft | 438 kts | 321° |
| 2026-05-06 11:18 | 40.38526 | 22.03926 | 36005 ft | 437 kts | 321° |
| 2026-05-06 11:19 | 40.43292 | 21.98881 | 36012 ft | 443 kts | 321° |